Time;durP1;ratioP1;P1;durP2;ratioP2;P2;SDS_P1;SDS_P2;PMS_P1;PMS_P2;Temp;Humidity;BMP_temperature;BMP_pressure;BME280_temperature;BME280_humidity;BME280_pressure;Samples;Min_cycle;Max_cycle;Signal;HPM_P1;HPM_P2
2024/02/26 00:01:02;;;;;;;4.97;1.70;;;7.60;99.90;;;;;;7280758;19;20184;-79
2024/02/26 00:03:27;;;;;;;6.97;1.80;;;7.60;99.90;;;;;;7304678;19;20216;-79
2024/02/26 00:05:53;;;;;;;7.13;1.87;;;7.60;99.90;;;;;;7283137;19;20721;-80
2024/02/26 00:08:19;;;;;;;5.47;1.87;;;7.60;99.90;;;;;;7282099;19;20198;-79
2024/02/26 00:10:45;;;;;;;4.30;1.80;;;7.60;99.90;;;;;;7282797;19;20191;-79
2024/02/26 00:13:10;;;;;;;4.43;1.57;;;7.60;99.90;;;;;;7282942;19;20201;-79
2024/02/26 00:15:36;;;;;;;4.93;2.03;;;7.50;99.90;;;;;;7282080;19;20189;-79
2024/02/26 00:18:02;;;;;;;4.70;1.90;;;7.50;99.90;;;;;;7283053;19;20606;-79
2024/02/26 00:20:28;;;;;;;3.87;1.70;;;7.50;99.90;;;;;;7303462;19;20210;-80
2024/02/26 00:22:53;;;;;;;7.07;2.03;;;7.50;99.90;;;;;;7280313;19;20223;-80
2024/02/26 00:25:19;;;;;;;4.03;1.87;;;7.50;99.90;;;;;;7281923;19;20201;-80
2024/02/26 00:27:45;;;;;;;3.63;1.73;;;7.50;99.90;;;;;;7279122;19;20189;-79
2024/02/26 00:30:12;;;;;;;5.60;1.97;;;7.50;99.90;;;;;;7279232;19;20191;-79
2024/02/26 00:32:37;;;;;;;3.57;1.80;;;7.40;99.90;;;;;;7279917;19;20664;-80
2024/02/26 00:35:03;;;;;;;6.37;2.03;;;7.50;99.90;;;;;;7275989;19;20188;-79
2024/02/26 00:37:29;;;;;;;8.03;1.97;;;7.40;99.90;;;;;;7298119;19;20181;-80
2024/02/26 00:39:55;;;;;;;5.63;1.70;;;7.40;99.90;;;;;;7295968;19;20186;-80
2024/02/26 00:42:20;;;;;;;5.20;2.07;;;7.40;99.90;;;;;;7285052;19;20218;-81
2024/02/26 00:44:46;;;;;;;6.60;1.90;;;7.40;99.90;;;;;;7289362;19;20248;-80
2024/02/26 00:47:12;;;;;;;3.47;1.90;;;7.30;99.90;;;;;;7285258;19;20201;-79
2024/02/26 00:49:37;;;;;;;5.47;2.03;;;7.40;99.90;;;;;;7289213;19;20529;-79
2024/02/26 00:52:03;;;;;;;4.00;1.80;;;7.40;99.90;;;;;;7287571;19;20196;-79
2024/02/26 00:54:30;;;;;;;5.00;2.00;;;7.30;99.90;;;;;;7301890;19;20192;-79
2024/02/26 00:56:55;;;;;;;4.87;1.83;;;7.20;99.90;;;;;;7308217;19;20633;-80
2024/02/26 00:59:21;;;;;;;5.43;1.90;;;7.20;99.90;;;;;;7287548;19;20191;-79
2024/02/26 01:01:47;;;;;;;7.27;2.20;;;7.20;99.90;;;;;;7285436;19;20185;-80
2024/02/26 01:04:13;;;;;;;5.83;2.20;;;7.20;99.90;;;;;;7287022;19;20202;-80
2024/02/26 01:06:38;;;;;;;8.13;2.57;;;7.20;99.90;;;;;;7287253;19;20688;-80
2024/02/26 01:09:04;;;;;;;5.57;2.00;;;7.20;99.90;;;;;;7287617;19;20188;-80
2024/02/26 01:11:30;;;;;;;4.20;1.70;;;7.30;99.90;;;;;;7300742;19;20189;-79
2024/02/26 01:13:56;;;;;;;9.33;3.43;;;7.20;99.90;;;;;;7308199;19;20184;-80
2024/02/26 01:16:23;;;;;;;5.70;2.03;;;7.30;99.90;;;;;;7287904;19;20193;-81
2024/02/26 01:18:49;;;;;;;8.03;2.23;;;7.30;99.90;;;;;;7287186;19;21634;-80
2024/02/26 01:21:14;;;;;;;5.60;1.90;;;7.20;99.90;;;;;;7288092;19;20189;-80
2024/02/26 01:23:40;;;;;;;6.87;2.20;;;7.20;99.90;;;;;;7285701;19;20189;-80
2024/02/26 01:26:06;;;;;;;6.20;2.20;;;7.20;99.90;;;;;;7287309;19;20286;-80
2024/02/26 01:28:32;;;;;;;6.63;2.20;;;7.10;99.90;;;;;;7287194;19;20588;-80
2024/02/26 01:30:58;;;;;;;4.40;1.70;;;7.20;99.90;;;;;;7308115;19;20226;-80
2024/02/26 01:33:25;;;;;;;7.80;2.17;;;7.20;99.90;;;;;;7289152;19;20181;-80
2024/02/26 01:35:53;;;;;;;6.23;2.30;;;7.20;99.90;;;;;;7288039;19;20258;-81
2024/02/26 01:38:18;;;;;;;6.83;2.03;;;7.10;99.90;;;;;;7286601;19;20220;-80
2024/02/26 01:40:44;;;;;;;4.73;1.80;;;7.20;99.90;;;;;;7287751;19;20204;-80
2024/02/26 01:43:10;;;;;;;7.47;1.90;;;7.20;99.90;;;;;;7286235;19;20185;-80
2024/02/26 01:45:35;;;;;;;9.53;2.23;;;7.20;99.90;;;;;;7286243;19;20209;-80
2024/02/26 01:48:01;;;;;;;4.73;1.90;;;7.10;99.90;;;;;;7287665;19;20198;-80
2024/02/26 01:50:28;;;;;;;4.33;1.90;;;7.10;99.90;;;;;;7309135;19;20201;-81
2024/02/26 01:52:55;;;;;;;3.47;1.73;;;7.20;99.90;;;;;;7285132;19;20654;-80
2024/02/26 01:55:24;;;;;;;7.83;2.20;;;7.30;99.90;;;;;;7286090;19;20203;-81
2024/02/26 01:57:52;;;;;;;5.47;2.13;;;7.20;99.90;;;;;;7287181;19;20205;-81
2024/02/26 02:00:19;;;;;;;8.17;2.40;;;7.30;99.90;;;;;;7284796;19;20196;-80
2024/02/26 02:02:47;;;;;;;6.17;2.27;;;7.20;99.90;;;;;;7285539;19;20189;-80
2024/02/26 02:05:19;;;;;;;7.40;3.10;;;7.20;99.90;;;;;;7285766;19;20213;-81
2024/02/26 02:07:46;;;;;;;6.27;2.20;;;7.10;99.90;;;;;;7286858;19;20200;-81
2024/02/26 02:10:12;;;;;;;5.33;2.40;;;7.00;99.90;;;;;;7285671;19;20189;-80
2024/02/26 02:12:39;;;;;;;5.57;2.30;;;7.10;99.90;;;;;;7285657;19;20260;-81
2024/02/26 02:15:06;;;;;;;6.10;2.70;;;7.10;99.90;;;;;;7284963;19;20553;-81
2024/02/26 02:17:32;;;;;;;4.37;1.87;;;7.20;99.90;;;;;;7284775;19;20193;-79
2024/02/26 02:19:57;;;;;;;8.60;2.70;;;7.20;99.90;;;;;;7307817;19;20592;-81
2024/02/26 02:22:23;;;;;;;26.77;2.90;;;7.00;99.90;;;;;;7284911;19;20189;-80
2024/02/26 02:24:51;;;;;;;6.67;2.23;;;7.00;99.90;;;;;;7285724;19;20406;-80
2024/02/26 02:27:17;;;;;;;6.23;2.30;;;7.00;99.90;;;;;;7284690;19;20193;-80
2024/02/26 02:29:43;;;;;;;5.60;2.27;;;7.10;99.90;;;;;;7284723;19;20193;-80
2024/02/26 02:32:09;;;;;;;4.47;2.03;;;7.10;99.90;;;;;;7285619;19;20550;-80
2024/02/26 02:34:35;;;;;;;7.27;2.60;;;7.00;99.90;;;;;;7284438;19;20189;-80
2024/02/26 02:37:01;;;;;;;4.10;1.90;;;7.00;99.90;;;;;;7282800;19;20244;-80
2024/02/26 02:39:27;;;;;;;4.57;2.00;;;7.00;99.90;;;;;;7307420;19;20205;-80
2024/02/26 02:41:52;;;;;;;6.77;2.23;;;7.10;99.90;;;;;;7283836;19;20216;-80
2024/02/26 02:44:18;;;;;;;6.03;2.10;;;7.00;99.90;;;;;;7285476;19;20204;-80
2024/02/26 02:46:44;;;;;;;6.20;2.00;;;7.00;99.90;;;;;;7283928;19;20201;-80
2024/02/26 02:49:10;;;;;;;4.33;2.00;;;7.00;99.90;;;;;;7283423;19;20213;-80
2024/02/26 02:51:37;;;;;;;4.57;2.17;;;7.00;99.90;;;;;;7284047;19;20180;-80
2024/02/26 02:54:03;;;;;;;7.40;2.20;;;7.00;99.90;;;;;;7283017;19;20177;-80
2024/02/26 02:56:29;;;;;;;5.40;2.20;;;7.00;99.90;;;;;;7305674;19;20191;-80
2024/02/26 02:58:55;;;;;;;6.17;2.30;;;7.00;99.90;;;;;;7285736;19;20181;-80
2024/02/26 03:01:20;;;;;;;4.20;2.17;;;7.00;99.90;;;;;;7283217;19;20189;-80
2024/02/26 03:03:46;;;;;;;4.53;2.33;;;7.00;99.90;;;;;;7282565;19;20204;-80
2024/02/26 03:06:12;;;;;;;7.87;2.50;;;7.10;99.90;;;;;;7283224;19;20528;-80
2024/02/26 03:08:39;;;;;;;7.10;2.50;;;7.10;99.90;;;;;;7284718;19;20719;-80
2024/02/26 03:11:05;;;;;;;5.53;2.17;;;7.10;99.90;;;;;;7283964;19;20212;-80
2024/02/26 03:13:31;;;;;;;4.63;2.47;;;7.20;99.90;;;;;;7283398;19;20201;-79
2024/02/26 03:15:57;;;;;;;6.30;2.30;;;7.10;99.90;;;;;;7307787;19;20196;-80
2024/02/26 03:18:23;;;;;;;7.57;2.57;;;7.00;99.90;;;;;;7284377;19;20188;-80
2024/02/26 03:20:49;;;;;;;6.93;2.37;;;7.10;99.90;;;;;;7284384;19;20545;-80
2024/02/26 03:23:16;;;;;;;4.33;2.23;;;7.00;99.90;;;;;;7284573;19;20186;-80
2024/02/26 03:25:43;;;;;;;5.73;2.37;;;7.00;99.90;;;;;;7282794;19;20269;-79
2024/02/26 03:28:09;;;;;;;5.70;2.47;;;7.00;99.90;;;;;;7282333;19;20217;-80
2024/02/26 03:30:35;;;;;;;10.20;3.10;;;7.00;99.90;;;;;;7283268;19;20264;-80
2024/02/26 03:33:00;;;;;;;5.80;2.50;;;7.00;99.90;;;;;;7287448;19;20195;-80
2024/02/26 03:35:26;;;;;;;6.00;2.50;;;6.90;99.90;;;;;;7303937;19;20193;-80
2024/02/26 03:37:52;;;;;;;4.40;2.00;;;6.90;99.90;;;;;;7282203;19;20334;-80
2024/02/26 03:40:19;;;;;;;6.50;2.70;;;6.90;99.90;;;;;;7282509;19;20186;-80
2024/02/26 03:42:45;;;;;;;6.43;2.50;;;6.80;99.90;;;;;;7283469;19;20177;-80
2024/02/26 03:45:11;;;;;;;7.03;2.63;;;6.80;99.90;;;;;;7284010;19;20184;-80
2024/02/26 03:47:39;;;;;;;4.70;2.80;;;6.80;99.90;;;;;;7284441;19;20199;-81
2024/02/26 03:50:06;;;;;;;6.73;2.70;;;6.90;99.90;;;;;;7281800;19;20210;-80
2024/02/26 03:52:33;;;;;;;5.50;2.50;;;6.90;99.90;;;;;;7283861;19;20208;-80
2024/02/26 03:54:59;;;;;;;5.40;2.83;;;6.80;99.90;;;;;;7302628;19;20185;-80
2024/02/26 03:57:25;;;;;;;8.43;3.10;;;6.90;99.90;;;;;;7293753;19;20244;-80
2024/02/26 03:59:51;;;;;;;5.97;2.90;;;6.90;99.90;;;;;;7281908;19;20974;-80
2024/02/26 04:02:19;;;;;;;4.90;3.00;;;6.90;99.90;;;;;;7282354;19;20200;-80
2024/02/26 04:04:45;;;;;;;6.27;2.60;;;6.80;99.90;;;;;;7283035;19;20203;-79
2024/02/26 04:07:11;;;;;;;7.03;3.17;;;6.90;99.90;;;;;;7282235;19;20196;-80
2024/02/26 04:09:37;;;;;;;6.17;2.97;;;7.00;99.90;;;;;;7281846;19;20297;-80
2024/02/26 04:12:03;;;;;;;6.47;2.90;;;7.00;99.90;;;;;;7280760;19;20183;-80
2024/02/26 04:14:29;;;;;;;6.53;2.83;;;7.00;99.90;;;;;;7300728;19;20188;-80
2024/02/26 04:16:55;;;;;;;5.07;2.80;;;7.00;99.90;;;;;;7285910;19;20552;-80
2024/02/26 04:19:20;;;;;;;9.10;3.03;;;7.00;99.90;;;;;;7286052;19;20188;-80
2024/02/26 04:21:46;;;;;;;7.20;2.90;;;7.10;99.90;;;;;;7288619;19;20202;-80
2024/02/26 04:24:12;;;;;;;4.00;2.43;;;7.10;99.90;;;;;;7289168;19;20537;-80
2024/02/26 04:26:37;;;;;;;5.77;2.67;;;7.10;99.90;;;;;;7289011;19;20199;-80
2024/02/26 04:29:03;;;;;;;5.40;3.10;;;7.00;99.90;;;;;;7287382;19;20197;-80
2024/02/26 04:31:30;;;;;;;5.80;2.40;;;6.90;99.90;;;;;;7310044;19;20717;-80
2024/02/26 04:33:56;;;;;;;5.20;2.27;;;6.90;99.90;;;;;;7289484;19;20249;-80
2024/02/26 04:36:22;;;;;;;4.83;2.40;;;6.80;99.90;;;;;;7288799;19;20218;-80
2024/02/26 04:38:47;;;;;;;4.97;2.60;;;6.90;99.90;;;;;;7288380;19;20190;-80
2024/02/26 04:41:13;;;;;;;5.60;2.70;;;6.90;99.90;;;;;;7286669;19;20661;-79
2024/02/26 04:43:41;;;;;;;6.57;3.80;;;6.80;99.90;;;;;;7286862;19;20209;-79
2024/02/26 04:46:10;;;;;;;7.23;2.97;;;6.90;99.90;;;;;;7288088;19;20198;-79
2024/02/26 04:48:38;;;;;;;7.63;3.30;;;6.80;99.90;;;;;;7288078;19;20185;-79
2024/02/26 04:51:04;;;;;;;6.37;3.10;;;6.80;99.90;;;;;;7287068;19;20188;-79
2024/02/26 04:53:30;;;;;;;6.07;3.27;;;6.80;99.90;;;;;;7299851;19;20198;-79
2024/02/26 04:55:56;;;;;;;5.93;3.20;;;6.80;99.90;;;;;;7304744;19;20182;-78
2024/02/26 04:58:22;;;;;;;6.80;3.23;;;6.90;99.90;;;;;;7285895;19;20194;-79
2024/02/26 05:00:47;;;;;;;7.57;3.60;;;6.90;99.90;;;;;;7283761;19;20181;-79
2024/02/26 05:03:15;;;;;;;8.10;4.00;;;6.80;99.90;;;;;;7283144;19;20197;-79
2024/02/26 05:05:43;;;;;;;7.40;3.30;;;6.80;99.90;;;;;;7286031;19;20181;-79
2024/02/26 05:08:09;;;;;;;7.50;4.10;;;6.80;99.90;;;;;;7285128;19;20200;-78
2024/02/26 05:10:39;;;;;;;7.10;3.83;;;6.90;99.90;;;;;;7284311;19;20227;-78
2024/02/26 05:13:05;;;;;;;7.33;4.43;;;6.90;99.90;;;;;;7284860;19;20198;-79
2024/02/26 05:15:32;;;;;;;9.97;4.97;;;6.90;99.90;;;;;;7288489;19;20656;-79
2024/02/26 05:17:58;;;;;;;8.77;4.60;;;6.90;99.90;;;;;;7308589;19;20189;-79
2024/02/26 05:20:23;;;;;;;12.30;5.73;;;6.90;99.90;;;;;;7284554;19;20291;-79
2024/02/26 05:22:50;;;;;;;10.90;5.83;;;6.90;99.90;;;;;;7286157;19;20291;-79
2024/02/26 05:25:16;;;;;;;10.20;5.60;;;6.80;99.90;;;;;;7284382;19;20283;-79
2024/02/26 05:27:44;;;;;;;11.77;6.67;;;6.80;99.90;;;;;;7283279;19;20197;-78
2024/02/26 05:30:10;;;;;;;10.77;6.43;;;6.70;99.90;;;;;;7286665;19;20722;-79
2024/02/26 05:32:36;;;;;;;11.77;7.27;;;6.70;99.90;;;;;;7286029;19;20767;-78
2024/02/26 05:35:03;;;;;;;11.77;6.83;;;6.60;99.90;;;;;;7287294;19;20220;-79
2024/02/26 05:37:29;;;;;;;15.10;7.53;;;6.60;99.90;;;;;;7308856;19;20640;-79
2024/02/26 05:39:55;;;;;;;10.63;6.47;;;6.70;99.90;;;;;;7286359;19;20187;-79
2024/02/26 05:42:21;;;;;;;11.97;7.77;;;6.70;99.90;;;;;;7284772;19;20185;-79
2024/02/26 05:44:47;;;;;;;13.83;8.53;;;6.70;99.90;;;;;;7286120;19;20195;-79
2024/02/26 05:47:13;;;;;;;14.27;8.70;;;6.70;99.90;;;;;;7286002;19;20670;-78
2024/02/26 05:49:39;;;;;;;16.13;9.10;;;6.70;99.90;;;;;;7286928;19;20244;-79
2024/02/26 05:52:05;;;;;;;16.50;9.60;;;6.70;99.90;;;;;;7286383;19;20208;-78
2024/02/26 05:54:31;;;;;;;15.07;9.17;;;6.70;99.90;;;;;;7305965;19;20188;-78
2024/02/26 05:56:57;;;;;;;14.17;9.10;;;6.80;99.90;;;;;;7304281;19;20271;-78
2024/02/26 05:59:23;;;;;;;14.63;9.13;;;6.80;99.90;;;;;;7286360;19;20658;-78
2024/02/26 06:01:49;;;;;;;14.73;8.87;;;6.80;99.90;;;;;;7286685;19;20304;-78
2024/02/26 06:04:17;;;;;;;13.00;8.37;;;6.80;99.90;;;;;;7283342;19;20188;-77
2024/02/26 06:06:44;;;;;;;14.70;8.50;;;6.80;99.90;;;;;;7286626;19;20193;-78
2024/02/26 06:09:11;;;;;;;14.77;8.83;;;6.70;99.90;;;;;;7287174;19;20264;-81
2024/02/26 06:11:36;;;;;;;17.73;10.27;;;6.70;99.90;;;;;;7289238;19;20714;-78
2024/02/26 06:14:02;;;;;;;17.27;10.33;;;6.70;99.90;;;;;;7285082;19;20187;-78
2024/02/26 06:16:28;;;;;;;15.17;10.00;;;6.70;99.90;;;;;;7306925;19;20543;-79
2024/02/26 06:18:54;;;;;;;17.90;10.80;;;6.80;99.90;;;;;;7284925;19;20260;-78
2024/02/26 06:21:19;;;;;;;16.13;10.83;;;6.80;99.90;;;;;;7286266;19;20339;-78
2024/02/26 06:23:45;;;;;;;17.83;11.93;;;6.80;99.90;;;;;;7284119;19;20690;-78
2024/02/26 06:26:11;;;;;;;17.13;11.37;;;6.90;99.90;;;;;;7283681;19;20188;-79
2024/02/26 06:28:40;;;;;;;17.67;11.87;;;6.90;99.90;;;;;;7281979;19;20217;-79
2024/02/26 06:31:06;;;;;;;20.37;13.60;;;6.80;99.90;;;;;;7277660;19;20201;-79
2024/02/26 06:33:32;;;;;;;19.83;13.50;;;6.80;99.90;;;;;;7280251;19;20188;-78
2024/02/26 06:35:58;;;;;;;19.17;14.03;;;6.70;99.90;;;;;;7299834;19;20204;-79
2024/02/26 06:38:23;;;;;;;22.77;14.57;;;6.70;99.90;;;;;;7281778;19;20185;-78
2024/02/26 06:40:49;;;;;;;24.43;14.90;;;6.70;99.90;;;;;;7281022;19;20724;-78
2024/02/26 06:43:15;;;;;;;24.43;15.67;;;6.70;99.90;;;;;;7282319;19;20191;-78
2024/02/26 06:45:41;;;;;;;19.17;12.30;;;6.80;99.90;;;;;;7282956;19;20189;-78
2024/02/26 06:48:07;;;;;;;23.83;15.53;;;6.70;99.90;;;;;;7285308;19;20253;-78
2024/02/26 06:50:32;;;;;;;22.10;14.37;;;6.80;99.90;;;;;;7282503;19;20216;-79
2024/02/26 06:52:58;;;;;;;25.13;16.17;;;6.70;99.90;;;;;;7307097;19;20185;-78
2024/02/26 06:55:24;;;;;;;24.97;15.70;;;6.70;99.90;;;;;;7284721;19;20710;-79
2024/02/26 06:57:50;;;;;;;25.87;17.03;;;6.80;99.90;;;;;;7282798;19;20376;-78
2024/02/26 07:00:16;;;;;;;23.17;16.30;;;6.80;99.90;;;;;;7283257;19;20208;-79
2024/02/26 07:02:43;;;;;;;22.67;15.40;;;6.90;99.90;;;;;;7282147;19;20200;-79
2024/02/26 07:05:09;;;;;;;24.27;16.90;;;6.80;99.90;;;;;;7284524;19;20261;-79
2024/02/26 07:07:36;;;;;;;23.67;15.10;;;6.70;99.90;;;;;;7282601;19;20185;-79
2024/02/26 07:10:03;;;;;;;25.77;17.30;;;6.80;99.90;;;;;;7283866;19;20546;-79
2024/02/26 07:12:30;;;;;;;21.63;15.87;;;6.80;99.90;;;;;;7304072;19;20197;-78
2024/02/26 07:14:55;;;;;;;23.63;15.77;;;6.70;99.90;;;;;;7282900;19;20193;-79
2024/02/26 07:17:21;;;;;;;21.33;15.13;;;6.70;99.90;;;;;;7282773;19;20976;-79
2024/02/26 07:19:47;;;;;;;21.03;15.50;;;6.70;99.90;;;;;;7283965;19;20217;-78
2024/02/26 07:22:13;;;;;;;23.50;14.87;;;6.70;99.90;;;;;;7282429;19;20191;-79
2024/02/26 07:24:39;;;;;;;22.47;15.80;;;6.60;99.90;;;;;;7283901;19;20189;-79
2024/02/26 07:27:05;;;;;;;23.83;15.70;;;6.60;99.90;;;;;;7282813;19;20200;-79
2024/02/26 07:29:31;;;;;;;24.33;17.60;;;6.70;99.90;;;;;;7289888;19;20219;-78
2024/02/26 07:31:58;;;;;;;25.53;17.20;;;6.70;99.90;;;;;;7305650;19;20660;-78
2024/02/26 07:34:27;;;;;;;23.27;16.47;;;6.70;99.90;;;;;;7282510;19;20220;-79
2024/02/26 07:36:53;;;;;;;24.73;18.67;;;6.80;99.90;;;;;;7282690;19;20191;-79
2024/02/26 07:39:19;;;;;;;26.37;18.80;;;6.70;99.90;;;;;;7278547;19;20185;-79
2024/02/26 07:41:49;;;;;;;24.50;17.60;;;6.60;99.90;;;;;;7277415;19;20680;-78
2024/02/26 07:44:15;;;;;;;26.77;18.20;;;6.70;99.90;;;;;;7275103;19;20229;-79
2024/02/26 07:46:41;;;;;;;23.70;17.80;;;6.70;99.90;;;;;;7277583;19;20222;-79
2024/02/26 07:49:08;;;;;;;22.67;16.90;;;6.70;99.90;;;;;;7279294;19;20281;-79
2024/02/26 07:51:34;;;;;;;26.73;17.70;;;6.70;99.90;;;;;;7292274;19;20201;-79
2024/02/26 07:54:01;;;;;;;24.43;18.53;;;6.60;99.90;;;;;;7308357;19;20671;-79
2024/02/26 07:56:27;;;;;;;23.33;17.83;;;6.60;99.90;;;;;;7313955;19;20211;-82
2024/02/26 07:58:52;;;;;;;25.63;17.43;;;6.60;99.90;;;;;;7292167;19;20192;-81
2024/02/26 08:01:18;;;;;;;24.30;17.80;;;6.60;99.90;;;;;;7293528;19;20221;-82
2024/02/26 08:03:44;;;;;;;23.83;17.30;;;6.60;99.90;;;;;;7292946;19;20835;-81
2024/02/26 08:06:10;;;;;;;23.17;17.90;;;6.70;99.90;;;;;;7294427;19;20676;-80
2024/02/26 08:08:36;;;;;;;24.23;18.30;;;6.70;99.90;;;;;;7292882;19;20201;-79
2024/02/26 08:11:02;;;;;;;25.30;18.17;;;6.70;99.90;;;;;;7291329;19;20216;-79
2024/02/26 08:13:27;;;;;;;24.40;17.90;;;6.70;99.90;;;;;;7312906;19;20188;-79
2024/02/26 08:15:53;;;;;;;18.83;11.57;;;6.80;99.90;;;;;;7289422;19;20184;-79
2024/02/26 08:18:19;;;;;;;23.20;17.40;;;6.80;99.90;;;;;;7291646;19;20280;-79
2024/02/26 08:20:45;;;;;;;24.97;17.23;;;6.80;99.90;;;;;;7289255;19;20187;-79
2024/02/26 08:23:11;;;;;;;23.20;16.73;;;6.70;99.90;;;;;;7299535;19;20210;-79
2024/02/26 08:25:37;;;;;;;23.63;16.87;;;6.70;99.90;;;;;;7296578;19;20264;-79
2024/02/26 08:28:03;;;;;;;23.27;17.63;;;6.70;99.90;;;;;;7288597;19;20199;-79
2024/02/26 08:30:28;;;;;;;22.67;16.23;;;6.70;99.90;;;;;;7312445;19;20213;-79
2024/02/26 08:32:54;;;;;;;22.40;16.43;;;6.70;99.90;;;;;;7288811;19;20734;-79
2024/02/26 08:35:20;;;;;;;25.10;17.60;;;6.60;99.90;;;;;;7288345;19;20193;-79
2024/02/26 08:37:49;;;;;;;22.70;16.93;;;6.70;99.90;;;;;;7289308;19;20590;-80
2024/02/26 08:40:15;;;;;;;23.07;17.20;;;6.70;99.90;;;;;;7290025;19;20200;-79
2024/02/26 08:42:41;;;;;;;22.67;16.23;;;6.60;99.90;;;;;;7290798;19;20670;-79
2024/02/26 08:45:08;;;;;;;23.07;17.00;;;6.60;99.90;;;;;;7288812;19;20173;-79
2024/02/26 08:47:33;;;;;;;21.90;15.60;;;6.60;99.90;;;;;;7290602;19;20533;-79
2024/02/26 08:49:59;;;;;;;21.37;16.27;;;6.60;99.90;;;;;;7312202;19;20263;-79
2024/02/26 08:52:25;;;;;;;21.83;16.63;;;6.60;99.90;;;;;;7289770;19;20194;-79
2024/02/26 08:54:51;;;;;;;22.33;14.57;;;6.60;99.90;;;;;;7288607;19;20184;-79
2024/02/26 08:57:16;;;;;;;20.60;15.00;;;6.60;99.90;;;;;;7289478;19;20209;-79
2024/02/26 08:59:42;;;;;;;19.97;14.73;;;6.50;99.90;;;;;;7292593;19;20186;-81
2024/02/26 09:02:09;;;;;;;20.97;15.07;;;6.50;99.90;;;;;;7283883;19;20205;-80
2024/02/26 09:04:35;;;;;;;20.37;14.97;;;6.50;99.90;;;;;;7282330;19;20223;-80
2024/02/26 09:07:02;;;;;;;20.33;15.27;;;6.50;99.90;;;;;;7293274;19;20189;-79
2024/02/26 09:09:27;;;;;;;20.33;15.33;;;6.50;99.90;;;;;;7305475;19;20203;-79
2024/02/26 09:11:55;;;;;;;19.40;14.40;;;6.60;99.90;;;;;;7283325;19;20608;-79
2024/02/26 09:14:21;;;;;;;18.87;14.43;;;6.60;99.90;;;;;;7280258;19;20216;-79
2024/02/26 09:16:51;;;;;;;20.93;14.07;;;6.60;99.90;;;;;;7283237;19;20190;-79
2024/02/26 09:19:17;;;;;;;18.93;14.37;;;6.60;99.90;;;;;;7282349;19;20257;-80
2024/02/26 09:21:45;;;;;;;20.63;15.70;;;6.60;99.90;;;;;;7281343;19;20592;-81
2024/02/26 09:24:12;;;;;;;21.17;15.60;;;6.60;99.90;;;;;;7283178;19;20189;-80
2024/02/26 09:26:38;;;;;;;20.63;15.93;;;6.70;99.90;;;;;;7291840;19;20191;-80
2024/02/26 09:29:04;;;;;;;22.70;16.13;;;6.70;99.90;;;;;;7287392;19;20203;-80
2024/02/26 09:31:30;;;;;;;20.40;13.87;;;6.70;99.90;;;;;;7314645;19;20269;-80
2024/02/26 09:33:56;;;;;;;21.83;16.17;;;6.70;99.90;;;;;;7284627;19;20183;-80
2024/02/26 09:36:22;;;;;;;20.87;15.90;;;6.80;99.90;;;;;;7281784;19;20198;-80
2024/02/26 09:38:48;;;;;;;19.50;14.60;;;6.80;99.90;;;;;;7282137;19;20762;-80
2024/02/26 09:41:17;;;;;;;20.90;15.27;;;6.80;99.90;;;;;;7280571;19;20199;-80
2024/02/26 09:43:45;;;;;;;19.80;13.80;;;6.70;99.90;;;;;;7281798;19;20257;-80
2024/02/26 09:46:11;;;;;;;18.43;14.33;;;6.70;99.90;;;;;;7282255;19;20189;-80
2024/02/26 09:48:38;;;;;;;16.73;11.97;;;6.70;99.90;;;;;;7282225;19;20193;-80
2024/02/26 09:51:04;;;;;;;17.97;13.07;;;6.70;99.90;;;;;;7281175;19;20236;-80
2024/02/26 09:53:32;;;;;;;19.03;12.47;;;6.60;99.90;;;;;;7298165;19;20417;-79
2024/02/26 09:56:01;;;;;;;18.00;13.07;;;6.80;99.90;;;;;;7303985;19;20192;-79
2024/02/26 09:58:28;;;;;;;17.67;11.73;;;6.80;99.90;;;;;;7284438;19;20265;-80
2024/02/26 10:00:58;;;;;;;16.40;11.57;;;6.90;99.90;;;;;;7279126;19;20576;-81
2024/02/26 10:03:40;;;;;;;17.27;11.93;;;6.90;99.90;;;;;;7281022;19;20190;-80
2024/02/26 10:06:08;;;;;;;14.40;10.30;;;6.90;99.90;;;;;;7179741;19;2004647;-79
2024/02/26 10:08:35;;;;;;;14.00;9.83;;;6.80;99.90;;;;;;7280525;19;20206;-79
2024/02/26 10:11:01;;;;;;;13.23;10.40;;;6.80;99.90;;;;;;7294799;19;20188;-79
2024/02/26 10:13:26;;;;;;;14.03;9.47;;;6.80;99.90;;;;;;7300706;19;20188;-80
2024/02/26 10:15:53;;;;;;;13.87;9.60;;;7.00;99.90;;;;;;7280255;19;20205;-80
2024/02/26 10:18:19;;;;;;;14.17;10.20;;;7.00;99.90;;;;;;7282819;19;20179;-80
2024/02/26 10:21:01;;;;;;;13.80;9.57;;;7.00;99.90;;;;;;7281004;19;20187;-80
2024/02/26 10:23:27;;;;;;;13.90;9.73;;;6.90;99.90;;;;;;7280002;19;20181;-80
2024/02/26 10:25:55;;;;;;;13.70;8.83;;;6.90;99.90;;;;;;7280233;19;20189;-79
2024/02/26 10:28:21;;;;;;;12.80;9.00;;;7.00;99.90;;;;;;7277181;19;20205;-78
2024/02/26 10:30:47;;;;;;;10.23;6.73;;;7.00;99.90;;;;;;7278156;19;20218;-79
2024/02/26 10:33:15;;;;;;;10.30;7.10;;;7.00;99.90;;;;;;7277492;19;20192;-78
2024/02/26 10:35:48;;;;;;;11.43;7.40;;;6.90;99.90;;;;;;7278581;19;20533;-79
2024/02/26 10:38:16;;;;;;;11.60;7.00;;;6.90;99.90;;;;;;7279644;19;20210;-79
2024/02/26 10:40:42;;;;;;;8.77;5.80;;;7.00;99.90;;;;;;7277907;19;20196;-79
2024/02/26 10:43:08;;;;;;;10.00;6.47;;;7.10;99.90;;;;;;7276239;19;20191;-78
2024/02/26 10:45:33;;;;;;;9.30;6.50;;;7.00;99.90;;;;;;7278564;19;20199;-78
2024/02/26 10:48:00;;;;;;;9.83;6.27;;;7.10;99.90;;;;;;7301690;19;20656;-80
2024/02/26 10:50:26;;;;;;;9.10;6.13;;;7.00;99.90;;;;;;7277454;19;20185;-80
2024/02/26 10:52:54;;;;;;;9.77;6.47;;;7.10;99.90;;;;;;7279432;19;20181;-80
2024/02/26 10:55:22;;;;;;;10.60;6.60;;;7.10;99.90;;;;;;7276817;19;20199;-80
2024/02/26 10:57:51;;;;;;;10.47;6.37;;;7.20;99.90;;;;;;7279897;19;20192;-80
2024/02/26 11:00:17;;;;;;;10.10;6.43;;;7.10;99.90;;;;;;7277535;19;20651;-80
2024/02/26 11:02:46;;;;;;;9.07;6.13;;;7.00;99.90;;;;;;7275827;19;20259;-80
2024/02/26 11:05:13;;;;;;;8.97;5.93;;;7.00;99.90;;;;;;7278211;19;20648;-80
2024/02/26 11:07:41;;;;;;;8.00;5.60;;;6.90;99.90;;;;;;7277544;19;20706;-80
2024/02/26 11:10:07;;;;;;;9.00;5.60;;;6.80;99.90;;;;;;7277683;19;20223;-79
2024/02/26 11:12:38;;;;;;;7.73;5.27;;;6.80;99.90;;;;;;7278050;19;20203;-80
2024/02/26 11:15:04;;;;;;;8.00;5.43;;;6.70;99.90;;;;;;7276341;19;20680;-79
2024/02/26 11:17:31;;;;;;;8.60;5.50;;;6.70;99.90;;;;;;7297881;19;20188;-80
2024/02/26 11:19:58;;;;;;;8.70;5.27;;;6.70;99.90;;;;;;7277520;19;20189;-80
2024/02/26 11:22:26;;;;;;;8.43;5.27;;;6.80;99.90;;;;;;7278565;19;20187;-80
2024/02/26 11:25:00;;;;;;;9.33;5.60;;;6.80;99.90;;;;;;7276093;19;20190;-80
2024/02/26 11:27:42;;;;;;;11.17;5.50;;;6.80;99.90;;;;;;7278171;19;20200;-80
2024/02/26 11:30:10;;;;;;;6.97;4.73;;;6.90;99.90;;;;;;7174370;19;2004483;-80
2024/02/26 11:32:37;;;;;;;10.23;5.07;;;6.80;99.90;;;;;;7278113;19;20194;-79
2024/02/26 11:35:05;;;;;;;8.40;5.17;;;6.80;99.90;;;;;;7278849;19;20191;-79
2024/02/26 11:37:32;;;;;;;6.80;4.63;;;6.80;99.90;;;;;;7290795;19;20202;-79
2024/02/26 11:40:01;;;;;;;10.67;5.10;;;6.70;99.90;;;;;;7299842;19;20181;-80
2024/02/26 11:42:27;;;;;;;8.20;5.03;;;6.70;99.90;;;;;;7277345;19;20192;-79
2024/02/26 11:44:52;;;;;;;7.83;5.23;;;6.80;99.90;;;;;;7276180;19;20281;-78
2024/02/26 11:47:19;;;;;;;8.53;5.73;;;6.80;99.90;;;;;;7277637;19;20277;-78
2024/02/26 11:49:45;;;;;;;8.87;5.17;;;6.80;99.90;;;;;;7276689;19;20186;-78
2024/02/26 11:52:13;;;;;;;10.23;6.20;;;6.80;99.90;;;;;;7277577;19;20648;-78
2024/02/26 11:54:38;;;;;;;8.50;5.00;;;6.80;99.90;;;;;;7275574;19;20181;-77
2024/02/26 11:57:19;;;;;;;9.17;5.50;;;6.80;99.90;;;;;;7276265;19;20637;-78
2024/02/26 11:59:45;;;;;;;7.07;5.10;;;6.80;99.90;;;;;;7276954;19;20614;-78
2024/02/26 12:02:12;;;;;;;8.37;4.73;;;6.70;99.90;;;;;;7275142;19;20185;-78
2024/02/26 12:04:38;;;;;;;8.47;4.83;;;6.70;99.90;;;;;;7277475;19;20273;-78
2024/02/26 12:07:05;;;;;;;6.57;3.97;;;6.70;99.90;;;;;;7275863;19;20244;-79
2024/02/26 12:09:32;;;;;;;7.43;4.30;;;6.70;99.90;;;;;;7290702;19;20196;-78
2024/02/26 12:11:59;;;;;;;5.97;3.97;;;6.70;99.90;;;;;;7297446;19;20184;-78
2024/02/26 12:14:28;;;;;;;4.37;3.50;;;6.70;99.90;;;;;;7276173;19;20770;-80
2024/02/26 12:16:56;;;;;;;5.50;3.97;;;6.70;99.90;;;;;;7275054;19;20710;-80
2024/02/26 12:19:22;;;;;;;6.17;3.73;;;6.70;99.90;;;;;;7275622;19;20174;-80
2024/02/26 12:21:52;;;;;;;7.03;4.40;;;6.60;99.90;;;;;;7276377;19;20199;-80
2024/02/26 12:24:19;;;;;;;7.13;3.90;;;6.70;99.90;;;;;;7276556;19;20198;-80
2024/02/26 12:26:45;;;;;;;6.10;3.90;;;6.70;99.90;;;;;;7276288;19;20585;-81
2024/02/26 12:29:13;;;;;;;6.53;4.03;;;6.70;99.90;;;;;;7274402;19;20667;-80
2024/02/26 12:31:40;;;;;;;6.37;3.93;;;6.80;99.90;;;;;;7274251;19;20207;-80
2024/02/26 12:34:09;;;;;;;5.07;3.47;;;6.60;99.90;;;;;;7277113;19;20185;-80
2024/02/26 12:36:36;;;;;;;5.73;3.17;;;6.60;99.90;;;;;;7278460;19;20277;-80
2024/02/26 12:39:02;;;;;;;3.83;2.70;;;6.60;99.90;;;;;;7290259;19;20557;-79
2024/02/26 12:41:31;;;;;;;5.43;3.40;;;6.50;99.90;;;;;;7305606;19;20176;-81
2024/02/26 12:43:58;;;;;;;6.20;3.80;;;6.50;99.90;;;;;;7282212;19;20193;-80